Time;durP1;ratioP1;P1;durP2;ratioP2;P2;SDS_P1;SDS_P2;PMS_P1;PMS_P2;Temp;Humidity;BMP_temperature;BMP_pressure;BME280_temperature;BME280_humidity;BME280_pressure;Samples;Min_cycle;Max_cycle;Signal;HPM_P1;HPM_P2
2023/12/05 00:00:26;;;;;;;74.35;31.85;;;;;;;;;;1043947;28;20391;-70
2023/12/05 00:01:17;;;;;;;75.13;30.13;;;;;;;;;;1042793;28;20079;-69
2023/12/05 00:01:48;;;;;;;67.97;30.55;;;;;;;;;;1042715;28;20071;-69
2023/12/05 00:02:18;;;;;;;72.97;30.20;;;;;;;;;;1043409;28;20348;-69
2023/12/05 00:02:49;;;;;;;73.57;32.08;;;;;;;;;;1044054;28;20102;-69
2023/12/05 00:03:19;;;;;;;78.10;32.75;;;;;;;;;;1044489;28;20036;-70
2023/12/05 00:03:50;;;;;;;71.95;31.48;;;;;;;;;;1043528;28;20222;-70
2023/12/05 00:04:20;;;;;;;75.78;30.45;;;;;;;;;;1043687;28;20052;-69
2023/12/05 00:04:51;;;;;;;77.38;31.83;;;;;;;;;;1043946;28;20080;-69
2023/12/05 00:05:21;;;;;;;74.75;31.98;;;;;;;;;;1043751;28;20048;-69
2023/12/05 00:05:52;;;;;;;70.95;32.65;;;;;;;;;;1045294;28;20581;-69
2023/12/05 00:06:23;;;;;;;68.63;32.08;;;;;;;;;;1046262;28;20040;-69
2023/12/05 00:06:53;;;;;;;70.53;30.88;;;;;;;;;;1046369;28;20048;-69
2023/12/05 00:07:25;;;;;;;80.90;33.47;;;;;;;;;;1043570;28;20047;-69
2023/12/05 00:07:55;;;;;;;84.43;32.33;;;;;;;;;;1044655;28;20173;-69
2023/12/05 00:08:26;;;;;;;87.55;32.40;;;;;;;;;;1044931;28;20705;-70
2023/12/05 00:08:56;;;;;;;69.38;29.60;;;;;;;;;;1043495;28;20040;-69
2023/12/05 00:09:27;;;;;;;73.97;30.40;;;;;;;;;;1043685;28;20052;-69
2023/12/05 00:09:59;;;;;;;74.70;31.30;;;;;;;;;;1044096;28;20032;-70
2023/12/05 00:10:30;;;;;;;83.03;32.47;;;;;;;;;;1043924;28;20414;-69
2023/12/05 00:11:06;;;;;;;77.63;32.55;;;;;;;;;;1044213;28;20472;-69
2023/12/05 00:11:40;;;;;;;78.28;32.50;;;;;;;;;;1043399;28;20079;-69
2023/12/05 00:12:10;;;;;;;74.97;30.40;;;;;;;;;;1043606;28;20037;-69
2023/12/05 00:12:41;;;;;;;67.70;32.60;;;;;;;;;;1045196;28;20033;-69
2023/12/05 00:13:12;;;;;;;77.32;33.10;;;;;;;;;;1043050;28;20040;-69
2023/12/05 00:13:43;;;;;;;74.00;31.63;;;;;;;;;;1044023;28;20044;-69
2023/12/05 00:14:13;;;;;;;73.70;33.25;;;;;;;;;;1042714;28;20493;-69
2023/12/05 00:14:44;;;;;;;75.43;33.15;;;;;;;;;;1043508;28;20148;-69
2023/12/05 00:15:14;;;;;;;78.63;32.95;;;;;;;;;;1044004;28;20037;-70
2023/12/05 00:15:45;;;;;;;78.38;31.80;;;;;;;;;;1045987;28;20076;-69
2023/12/05 00:16:15;;;;;;;80.38;31.88;;;;;;;;;;1045652;28;20086;-70
2023/12/05 00:16:46;;;;;;;74.70;31.42;;;;;;;;;;1044988;28;20070;-69
2023/12/05 00:17:17;;;;;;;78.97;34.28;;;;;;;;;;1044878;28;20047;-70
2023/12/05 00:17:47;;;;;;;72.47;31.85;;;;;;;;;;1046726;28;20051;-69
2023/12/05 00:18:18;;;;;;;80.35;32.63;;;;;;;;;;1044664;28;20162;-69
2023/12/05 00:18:50;;;;;;;70.38;33.47;;;;;;;;;;1046093;28;20041;-69
2023/12/05 00:19:20;;;;;;;81.03;32.20;;;;;;;;;;1043169;28;20048;-69
2023/12/05 00:19:51;;;;;;;71.55;30.10;;;;;;;;;;1047007;28;20048;-69
2023/12/05 00:20:21;;;;;;;68.53;32.17;;;;;;;;;;1045565;28;20123;-70
2023/12/05 00:20:52;;;;;;;71.93;33.15;;;;;;;;;;1044821;28;20652;-69
2023/12/05 00:21:24;;;;;;;87.60;34.33;;;;;;;;;;1044925;28;20490;-69
2023/12/05 00:21:55;;;;;;;80.40;33.65;;;;;;;;;;1046717;28;20086;-69
2023/12/05 00:22:28;;;;;;;71.40;31.48;;;;;;;;;;1045410;28;20036;-70
2023/12/05 00:22:59;;;;;;;76.60;32.17;;;;;;;;;;1046893;28;20048;-69
2023/12/05 00:23:29;;;;;;;67.32;30.02;;;;;;;;;;1046183;28;20045;-69
2023/12/05 00:24:00;;;;;;;68.40;30.20;;;;;;;;;;1049487;28;20060;-69
2023/12/05 00:24:31;;;;;;;77.07;32.72;;;;;;;;;;1048819;28;20040;-69
2023/12/05 00:25:02;;;;;;;78.53;32.17;;;;;;;;;;1047388;28;20048;-69
2023/12/05 00:25:33;;;;;;;88.88;33.08;;;;;;;;;;1047005;28;20047;-69
2023/12/05 00:26:04;;;;;;;84.30;34.92;;;;;;;;;;1045821;28;20044;-69
2023/12/05 00:26:35;;;;;;;87.85;34.45;;;;;;;;;;1042566;28;20079;-69
2023/12/05 00:27:06;;;;;;;72.60;33.58;;;;;;;;;;1043977;28;20041;-69
2023/12/05 00:27:36;;;;;;;77.90;32.25;;;;;;;;;;1042552;28;20040;-69
2023/12/05 00:28:07;;;;;;;78.30;34.15;;;;;;;;;;1042539;28;20045;-69
2023/12/05 00:28:37;;;;;;;81.03;33.42;;;;;;;;;;1045218;28;20075;-69
2023/12/05 00:29:08;;;;;;;83.88;34.45;;;;;;;;;;1044115;28;20094;-69
2023/12/05 00:29:39;;;;;;;80.47;34.65;;;;;;;;;;1042882;28;20136;-69
2023/12/05 00:30:09;;;;;;;80.38;34.30;;;;;;;;;;1044719;28;20049;-70
2023/12/05 00:30:40;;;;;;;82.35;32.47;;;;;;;;;;1046542;28;20048;-69
2023/12/05 00:31:11;;;;;;;82.93;35.20;;;;;;;;;;1046135;28;20122;-69
2023/12/05 00:31:42;;;;;;;77.13;34.22;;;;;;;;;;1045817;28;20393;-69
2023/12/05 00:32:13;;;;;;;75.82;34.20;;;;;;;;;;1044353;28;20051;-69
2023/12/05 00:32:44;;;;;;;80.88;33.75;;;;;;;;;;1046671;28;20075;-69
2023/12/05 00:33:14;;;;;;;84.55;35.08;;;;;;;;;;1048041;28;20476;-69
2023/12/05 00:33:45;;;;;;;76.18;33.35;;;;;;;;;;1049350;28;20059;-69
2023/12/05 00:34:15;;;;;;;88.40;36.55;;;;;;;;;;1049438;28;20052;-69
2023/12/05 00:34:46;;;;;;;74.82;31.88;;;;;;;;;;1046572;28;20045;-69
2023/12/05 00:35:18;;;;;;;86.60;34.58;;;;;;;;;;1045265;28;20386;-69
2023/12/05 00:35:48;;;;;;;82.03;34.90;;;;;;;;;;1049069;28;20075;-69
2023/12/05 00:36:19;;;;;;;75.47;34.25;;;;;;;;;;1050262;28;20135;-69
2023/12/05 00:36:49;;;;;;;78.22;32.10;;;;;;;;;;1050505;28;20378;-69
2023/12/05 00:37:20;;;;;;;78.05;33.17;;;;;;;;;;1050509;28;20617;-70
2023/12/05 00:37:50;;;;;;;82.90;33.03;;;;;;;;;;1050118;28;20058;-69
2023/12/05 00:38:21;;;;;;;84.13;33.35;;;;;;;;;;1049348;28;20137;-69
2023/12/05 00:38:52;;;;;;;80.72;35.17;;;;;;;;;;1049952;28;20165;-69
2023/12/05 00:39:22;;;;;;;89.22;35.47;;;;;;;;;;1049662;28;20056;-69
2023/12/05 00:39:53;;;;;;;77.90;32.67;;;;;;;;;;1050762;28;20042;-69
2023/12/05 00:40:29;;;;;;;84.93;34.72;;;;;;;;;;1049650;28;20036;-69
2023/12/05 00:41:00;;;;;;;75.22;30.67;;;;;;;;;;1049733;28;20101;-69
2023/12/05 00:41:31;;;;;;;70.90;31.27;;;;;;;;;;1049806;28;20067;-69
2023/12/05 00:42:02;;;;;;;77.45;33.30;;;;;;;;;;1050779;28;20039;-69
2023/12/05 00:42:32;;;;;;;72.38;30.92;;;;;;;;;;1049679;28;20404;-69
2023/12/05 00:43:03;;;;;;;74.72;32.42;;;;;;;;;;1050341;28;20054;-70
2023/12/05 00:43:34;;;;;;;78.63;32.80;;;;;;;;;;1049568;28;20088;-69
2023/12/05 00:44:04;;;;;;;69.50;30.48;;;;;;;;;;1050215;28;20036;-68
2023/12/05 00:44:35;;;;;;;70.20;32.15;;;;;;;;;;1050874;28;20172;-69
2023/12/05 00:45:06;;;;;;;84.65;33.30;;;;;;;;;;1048705;28;20059;-69
2023/12/05 00:45:36;;;;;;;68.18;31.80;;;;;;;;;;1048757;28;20051;-69
2023/12/05 00:46:07;;;;;;;76.22;33.65;;;;;;;;;;1050012;28;20158;-69
2023/12/05 00:46:38;;;;;;;77.25;31.48;;;;;;;;;;1047214;28;20044;-69
2023/12/05 00:47:08;;;;;;;78.93;32.22;;;;;;;;;;1045805;28;20049;-69
2023/12/05 00:47:40;;;;;;;82.57;33.95;;;;;;;;;;1050089;28;20149;-69
2023/12/05 00:48:10;;;;;;;76.65;32.10;;;;;;;;;;1048406;28;20777;-69
2023/12/05 00:48:41;;;;;;;74.97;32.80;;;;;;;;;;1049415;28;20059;-69
2023/12/05 00:49:12;;;;;;;82.43;32.58;;;;;;;;;;1049104;28;20032;-68
2023/12/05 00:49:42;;;;;;;68.78;31.38;;;;;;;;;;1048984;28;20048;-69
2023/12/05 00:50:13;;;;;;;76.05;33.30;;;;;;;;;;1049869;28;20044;-69
2023/12/05 00:50:44;;;;;;;69.88;30.50;;;;;;;;;;1050462;28;20056;-69
2023/12/05 00:51:14;;;;;;;81.15;32.05;;;;;;;;;;1049588;28;20036;-69
2023/12/05 00:51:45;;;;;;;72.85;32.70;;;;;;;;;;1046659;28;20750;-70
2023/12/05 00:52:15;;;;;;;72.35;31.77;;;;;;;;;;1045954;28;20173;-69
2023/12/05 00:52:46;;;;;;;80.40;32.33;;;;;;;;;;1049908;28;20082;-69
2023/12/05 00:53:17;;;;;;;69.63;31.98;;;;;;;;;;1050321;28;20036;-69
2023/12/05 00:53:47;;;;;;;79.18;31.02;;;;;;;;;;1046249;28;20036;-69
2023/12/05 00:54:18;;;;;;;72.03;31.58;;;;;;;;;;1045624;28;20066;-69
2023/12/05 00:54:48;;;;;;;71.97;31.95;;;;;;;;;;1042287;28;20041;-70
2023/12/05 00:55:19;;;;;;;67.70;30.35;;;;;;;;;;1043341;28;20489;-69
2023/12/05 00:55:49;;;;;;;71.90;32.05;;;;;;;;;;1044425;28;20036;-69
2023/12/05 00:56:20;;;;;;;68.30;31.25;;;;;;;;;;1044129;28;20053;-69
2023/12/05 00:56:51;;;;;;;67.15;31.05;;;;;;;;;;1044343;28;20041;-69
2023/12/05 00:57:21;;;;;;;83.13;33.22;;;;;;;;;;1046079;28;20102;-69
2023/12/05 00:57:52;;;;;;;75.30;31.13;;;;;;;;;;1044850;28;20116;-69
2023/12/05 00:58:22;;;;;;;74.22;31.73;;;;;;;;;;1043150;28;20029;-70
2023/12/05 00:58:53;;;;;;;68.63;30.80;;;;;;;;;;1046775;28;20040;-69
2023/12/05 00:59:24;;;;;;;79.93;30.70;;;;;;;;;;1042125;28;20859;-69
2023/12/05 00:59:54;;;;;;;73.15;29.02;;;;;;;;;;1044837;28;20037;-69
2023/12/05 01:00:25;;;;;;;80.22;31.63;;;;;;;;;;1041595;28;20049;-69
2023/12/05 01:00:55;;;;;;;69.30;30.80;;;;;;;;;;1042477;28;20047;-69
2023/12/05 01:01:26;;;;;;;76.38;31.95;;;;;;;;;;1043747;28;20134;-69
2023/12/05 01:01:56;;;;;;;70.53;31.30;;;;;;;;;;1045296;28;20435;-69
2023/12/05 01:02:27;;;;;;;70.90;31.67;;;;;;;;;;1045184;28;20071;-70
2023/12/05 01:02:58;;;;;;;71.45;29.60;;;;;;;;;;1043629;28;20052;-69
2023/12/05 01:03:29;;;;;;;69.15;29.05;;;;;;;;;;1043968;28;20060;-69
2023/12/05 01:03:59;;;;;;;66.38;29.02;;;;;;;;;;1043980;28;20083;-69
2023/12/05 01:04:30;;;;;;;71.88;29.50;;;;;;;;;;1041405;28;20049;-69
2023/12/05 01:05:01;;;;;;;64.13;28.85;;;;;;;;;;1042585;28;20560;-69
2023/12/05 01:05:33;;;;;;;73.00;31.25;;;;;;;;;;1044046;28;20041;-69
2023/12/05 01:06:05;;;;;;;72.00;28.70;;;;;;;;;;1044350;28;20037;-69
2023/12/05 01:06:35;;;;;;;69.32;28.80;;;;;;;;;;1045646;28;20045;-69
2023/12/05 01:07:06;;;;;;;68.97;30.00;;;;;;;;;;1046834;28;20049;-69
2023/12/05 01:07:36;;;;;;;64.78;28.55;;;;;;;;;;1046572;28;20048;-68
2023/12/05 01:08:07;;;;;;;74.63;29.90;;;;;;;;;;1043359;28;20465;-69
2023/12/05 01:08:38;;;;;;;66.80;30.50;;;;;;;;;;1042520;28;20055;-69
2023/12/05 01:09:10;;;;;;;71.18;29.95;;;;;;;;;;1045042;28;22827;-70
2023/12/05 01:09:41;;;;;;;75.65;30.52;;;;;;;;;;1045980;28;20131;-69
2023/12/05 01:10:11;;;;;;;65.07;29.00;;;;;;;;;;1043331;28;20040;-69
2023/12/05 01:10:42;;;;;;;70.57;30.10;;;;;;;;;;1038612;28;20073;-69
2023/12/05 01:11:13;;;;;;;67.22;30.52;;;;;;;;;;1039191;28;20053;-69
2023/12/05 01:11:43;;;;;;;74.70;28.80;;;;;;;;;;1039765;28;20136;-69
2023/12/05 01:12:14;;;;;;;65.25;29.92;;;;;;;;;;1044307;28;20056;-69
2023/12/05 01:12:45;;;;;;;72.40;29.83;;;;;;;;;;1044714;28;20053;-69
2023/12/05 01:13:16;;;;;;;70.10;30.80;;;;;;;;;;1042536;28;20036;-69
2023/12/05 01:13:46;;;;;;;66.00;29.33;;;;;;;;;;1042730;28;20044;-69
2023/12/05 01:14:17;;;;;;;68.30;30.90;;;;;;;;;;1043396;28;20040;-69
2023/12/05 01:14:47;;;;;;;70.47;29.60;;;;;;;;;;1045924;28;20044;-69
2023/12/05 01:15:18;;;;;;;72.03;29.75;;;;;;;;;;1043282;28;20087;-70
2023/12/05 01:15:49;;;;;;;67.65;30.48;;;;;;;;;;1042885;28;20044;-69
2023/12/05 01:16:20;;;;;;;65.57;30.08;;;;;;;;;;1042211;28;20070;-69
2023/12/05 01:16:50;;;;;;;63.00;29.60;;;;;;;;;;1042198;28;20540;-69
2023/12/05 01:17:21;;;;;;;73.65;30.80;;;;;;;;;;1043791;28;20143;-69
2023/12/05 01:17:51;;;;;;;74.53;30.80;;;;;;;;;;1044088;28;20037;-69
2023/12/05 01:18:22;;;;;;;69.72;31.00;;;;;;;;;;1043559;28;20570;-69
2023/12/05 01:18:52;;;;;;;67.65;30.13;;;;;;;;;;1042884;28;20469;-69
2023/12/05 01:19:23;;;;;;;69.07;29.42;;;;;;;;;;1042941;28;20033;-69
2023/12/05 01:19:53;;;;;;;67.28;30.50;;;;;;;;;;1043791;28;20040;-69
2023/12/05 01:20:24;;;;;;;64.72;28.75;;;;;;;;;;1044075;28;20044;-69
2023/12/05 01:20:55;;;;;;;67.28;29.10;;;;;;;;;;1042406;28;20040;-69
2023/12/05 01:21:25;;;;;;;64.13;28.70;;;;;;;;;;1042497;28;20734;-69
2023/12/05 01:21:56;;;;;;;62.22;27.77;;;;;;;;;;1043057;28;23642;-69
2023/12/05 01:22:26;;;;;;;63.05;29.17;;;;;;;;;;1042178;28;20043;-69
2023/12/05 01:22:57;;;;;;;62.58;29.05;;;;;;;;;;1042933;28;20041;-69
2023/12/05 01:23:27;;;;;;;58.97;27.17;;;;;;;;;;1041773;28;20056;-69
2023/12/05 01:23:58;;;;;;;56.78;26.73;;;;;;;;;;1044326;28;20045;-69
2023/12/05 01:24:29;;;;;;;56.55;27.20;;;;;;;;;;1045826;28;20053;-69
2023/12/05 01:24:59;;;;;;;65.45;27.98;;;;;;;;;;1045504;28;20040;-69
2023/12/05 01:25:30;;;;;;;61.17;25.75;;;;;;;;;;1042792;28;20040;-69
2023/12/05 01:26:00;;;;;;;61.85;26.67;;;;;;;;;;1044870;28;20123;-69
2023/12/05 01:26:31;;;;;;;65.35;28.70;;;;;;;;;;1041505;28;20099;-69
2023/12/05 01:27:03;;;;;;;62.83;28.10;;;;;;;;;;1043989;28;20045;-70
2023/12/05 01:27:33;;;;;;;67.97;26.55;;;;;;;;;;1042205;28;20260;-69
2023/12/05 01:28:04;;;;;;;61.35;27.42;;;;;;;;;;1043538;28;20044;-69
2023/12/05 01:28:34;;;;;;;54.15;26.02;;;;;;;;;;1046410;28;20044;-69
2023/12/05 01:29:05;;;;;;;57.03;26.67;;;;;;;;;;1045608;28;20547;-69
2023/12/05 01:29:36;;;;;;;60.25;25.92;;;;;;;;;;1043573;28;20053;-69
2023/12/05 01:30:07;;;;;;;63.53;26.50;;;;;;;;;;1044959;28;20049;-69
2023/12/05 01:30:37;;;;;;;58.83;27.25;;;;;;;;;;1044218;28;20114;-69
2023/12/05 01:31:08;;;;;;;59.60;26.70;;;;;;;;;;1043630;28;20076;-69
2023/12/05 01:31:38;;;;;;;55.28;27.30;;;;;;;;;;1046612;28;20083;-70
2023/12/05 01:32:09;;;;;;;62.97;27.83;;;;;;;;;;1043338;28;20408;-69
2023/12/05 01:32:39;;;;;;;62.78;27.60;;;;;;;;;;1042799;28;20529;-69
2023/12/05 01:33:10;;;;;;;65.97;27.75;;;;;;;;;;1042966;28;20486;-69
2023/12/05 01:33:41;;;;;;;57.97;25.38;;;;;;;;;;1043246;28;20114;-69
2023/12/05 01:34:11;;;;;;;63.20;26.42;;;;;;;;;;1043986;28;20098;-70
2023/12/05 01:34:42;;;;;;;58.50;26.38;;;;;;;;;;1045376;28;20433;-69
2023/12/05 01:35:12;;;;;;;61.00;26.50;;;;;;;;;;1045832;28;20118;-69
2023/12/05 01:35:43;;;;;;;52.42;26.27;;;;;;;;;;1043215;28;20122;-69
2023/12/05 01:36:14;;;;;;;71.88;27.55;;;;;;;;;;1043090;28;20398;-69
2023/12/05 01:36:44;;;;;;;52.85;24.55;;;;;;;;;;1045132;28;20465;-69
2023/12/05 01:37:15;;;;;;;64.28;26.55;;;;;;;;;;1046179;28;20515;-69
2023/12/05 01:37:48;;;;;;;57.50;25.65;;;;;;;;;;1043946;28;20051;-69
2023/12/05 01:38:19;;;;;;;63.25;26.48;;;;;;;;;;1043993;28;20090;-69
2023/12/05 01:38:50;;;;;;;60.35;27.17;;;;;;;;;;1043167;28;20081;-69
2023/12/05 01:39:20;;;;;;;61.55;26.30;;;;;;;;;;1044391;28;20036;-69
2023/12/05 01:39:51;;;;;;;60.60;27.02;;;;;;;;;;1043963;28;20045;-69
2023/12/05 01:40:22;;;;;;;59.65;27.25;;;;;;;;;;1042604;28;20611;-68
2023/12/05 01:40:52;;;;;;;58.28;25.25;;;;;;;;;;1045663;28;20033;-69
2023/12/05 01:41:23;;;;;;;62.08;27.35;;;;;;;;;;1044220;28;20082;-69
2023/12/05 01:41:53;;;;;;;58.05;27.48;;;;;;;;;;1043583;28;20420;-69
2023/12/05 01:42:24;;;;;;;58.63;25.55;;;;;;;;;;1045030;28;20049;-69
2023/12/05 01:42:54;;;;;;;54.60;25.00;;;;;;;;;;1045705;28;20049;-69
2023/12/05 01:43:25;;;;;;;64.40;25.98;;;;;;;;;;1043435;28;20521;-69
2023/12/05 01:43:56;;;;;;;62.33;26.92;;;;;;;;;;1043562;28;20040;-69
2023/12/05 01:44:26;;;;;;;62.60;26.77;;;;;;;;;;1043882;28;20117;-69
2023/12/05 01:44:57;;;;;;;58.42;26.58;;;;;;;;;;1043511;28;20041;-69
2023/12/05 01:45:27;;;;;;;59.58;26.63;;;;;;;;;;1042331;28;20052;-69
2023/12/05 01:45:59;;;;;;;57.70;24.88;;;;;;;;;;1043199;28;20052;-69
2023/12/05 01:46:30;;;;;;;56.15;25.83;;;;;;;;;;1043944;28;20051;-69
2023/12/05 01:47:03;;;;;;;56.22;25.92;;;;;;;;;;1045854;28;20044;-69
2023/12/05 01:47:35;;;;;;;54.13;26.08;;;;;;;;;;1042913;28;20048;-69
2023/12/05 01:48:06;;;;;;;62.47;26.90;;;;;;;;;;1047072;28;20040;-69
2023/12/05 01:48:37;;;;;;;58.78;26.90;;;;;;;;;;1043478;28;20049;-69
2023/12/05 01:49:07;;;;;;;60.45;25.55;;;;;;;;;;1045262;28;20048;-69
2023/12/05 01:49:39;;;;;;;60.33;26.77;;;;;;;;;;1043671;28;20045;-69
2023/12/05 01:50:16;;;;;;;64.70;27.90;;;;;;;;;;1045063;28;20354;-69
2023/12/05 01:50:47;;;;;;;57.05;25.02;;;;;;;;;;1044876;28;20127;-69
2023/12/05 01:51:18;;;;;;;56.15;26.52;;;;;;;;;;1047817;28;20404;-69
2023/12/05 01:51:49;;;;;;;64.25;26.27;;;;;;;;;;1051189;28;20773;-69
2023/12/05 01:52:20;;;;;;;62.28;26.13;;;;;;;;;;1051025;28;20111;-69
2023/12/05 01:52:56;;;;;;;62.65;26.42;;;;;;;;;;1050788;28;20055;-69
2023/12/05 01:53:27;;;;;;;56.72;27.45;;;;;;;;;;1050376;28;20117;-69
2023/12/05 01:53:58;;;;;;;57.90;27.08;;;;;;;;;;1050528;28;20098;-69
2023/12/05 01:54:31;;;;;;;56.50;26.35;;;;;;;;;;1046625;28;20113;-69
2023/12/05 01:55:02;;;;;;;58.50;26.20;;;;;;;;;;1046479;28;20047;-69
2023/12/05 01:55:33;;;;;;;62.60;26.95;;;;;;;;;;1050216;28;20051;-69
2023/12/05 01:56:05;;;;;;;57.88;25.48;;;;;;;;;;1051608;28;20139;-69
2023/12/05 01:56:35;;;;;;;63.05;27.33;;;;;;;;;;1050489;28;20046;-69
2023/12/05 01:57:07;;;;;;;62.20;26.30;;;;;;;;;;1051866;28;20055;-69
2023/12/05 01:57:37;;;;;;;60.72;26.70;;;;;;;;;;1049552;28;20044;-70
2023/12/05 01:58:09;;;;;;;61.00;25.38;;;;;;;;;;1050965;28;20138;-69
2023/12/05 01:58:40;;;;;;;58.00;25.73;;;;;;;;;;1050403;28;20052;-69
2023/12/05 01:59:11;;;;;;;55.60;25.55;;;;;;;;;;1051119;28;20048;-69
2023/12/05 01:59:42;;;;;;;56.83;26.02;;;;;;;;;;1049877;28;20040;-69
2023/12/05 02:00:14;;;;;;;56.33;25.67;;;;;;;;;;1051788;28;20047;-69
2023/12/05 02:00:45;;;;;;;55.30;25.15;;;;;;;;;;1050780;28;20056;-69
2023/12/05 02:01:15;;;;;;;54.22;26.75;;;;;;;;;;1050499;28;20036;-69
2023/12/05 02:01:49;;;;;;;62.42;26.77;;;;;;;;;;1050581;28;20048;-69
2023/12/05 02:02:20;;;;;;;59.28;26.25;;;;;;;;;;1049497;28;20048;-69
2023/12/05 02:02:51;;;;;;;60.83;27.13;;;;;;;;;;1050595;28;20092;-69
2023/12/05 02:03:22;;;;;;;60.53;27.63;;;;;;;;;;1049999;28;20156;-69
2023/12/05 02:03:53;;;;;;;62.10;27.52;;;;;;;;;;1047210;28;20045;-69
2023/12/05 02:04:24;;;;;;;54.08;27.02;;;;;;;;;;1046391;28;20052;-69
2023/12/05 02:04:55;;;;;;;55.15;25.73;;;;;;;;;;1046172;28;20052;-69
2023/12/05 02:05:26;;;;;;;64.10;28.00;;;;;;;;;;1045517;28;20040;-69
2023/12/05 02:05:57;;;;;;;57.25;25.67;;;;;;;;;;1047735;28;20036;-69
2023/12/05 02:06:28;;;;;;;59.65;27.23;;;;;;;;;;1049162;28;20045;-68
2023/12/05 02:07:00;;;;;;;58.83;26.73;;;;;;;;;;1051115;28;20040;-69
2023/12/05 02:07:31;;;;;;;55.65;26.08;;;;;;;;;;1050090;28;20091;-70
2023/12/05 02:08:02;;;;;;;54.55;25.63;;;;;;;;;;1051728;28;20046;-69
2023/12/05 02:08:33;;;;;;;58.67;27.15;;;;;;;;;;1049602;28;20058;-69
2023/12/05 02:09:05;;;;;;;61.60;26.80;;;;;;;;;;1050848;28;20097;-69
2023/12/05 02:09:37;;;;;;;67.35;27.48;;;;;;;;;;1049650;28;20051;-68
2023/12/05 02:10:09;;;;;;;63.53;27.20;;;;;;;;;;1050659;28;20044;-69
2023/12/05 02:10:39;;;;;;;60.25;26.58;;;;;;;;;;1048922;28;20159;-69
2023/12/05 02:11:10;;;;;;;62.33;25.45;;;;;;;;;;1051815;28;20078;-69
2023/12/05 02:11:42;;;;;;;57.72;25.88;;;;;;;;;;1049945;28;20044;-69
2023/12/05 02:12:13;;;;;;;60.40;26.33;;;;;;;;;;1051013;28;20047;-69
2023/12/05 02:12:43;;;;;;;63.70;27.95;;;;;;;;;;1049600;28;20056;-69
2023/12/05 02:13:14;;;;;;;60.55;25.40;;;;;;;;;;1050832;28;20042;-69
2023/12/05 02:13:46;;;;;;;55.33;26.48;;;;;;;;;;1049616;28;20044;-69
2023/12/05 02:14:19;;;;;;;55.90;25.95;;;;;;;;;;1050732;28;20036;-69
2023/12/05 02:14:50;;;;;;;62.05;27.90;;;;;;;;;;1050042;28;20040;-69
2023/12/05 02:15:20;;;;;;;64.97;25.70;;;;;;;;;;1049984;28;20044;-69
2023/12/05 02:16:20;;;;;;;60.38;26.55;;;;;;;;;;1050801;28;20043;-69
2023/12/05 02:17:14;;;;;;;46.85;22.90;;;;;;;;;;1050216;28;20105;-69
2023/12/05 02:18:03;;;;;;;59.72;23.38;;;;;;;;;;1047572;28;20060;-69
2023/12/05 02:18:40;;;;;;;56.65;23.85;;;;;;;;;;1049433;28;20044;-69
2023/12/05 02:19:32;;;;;;;54.67;24.67;;;;;;;;;;1048346;28;20147;-69
2023/12/05 02:20:40;;;;;;;54.33;23.55;;;;;;;;;;1046085;28;20064;-69
2023/12/05 02:21:20;;;;;;;47.58;20.10;;;;;;;;;;1041947;28;20091;-69
2023/12/05 02:21:53;;;;;;;53.47;22.85;;;;;;;;;;1048793;28;20048;-69
2023/12/05 02:23:02;;;;;;;50.15;23.35;;;;;;;;;;1047524;28;20052;-69
2023/12/05 02:23:57;;;;;;;51.70;23.35;;;;;;;;;;1033637;28;20081;-69
2023/12/05 02:24:56;;;;;;;47.45;21.58;;;;;;;;;;1038135;28;20049;-69
2023/12/05 02:25:38;;;;;;;46.83;21.48;;;;;;;;;;1045765;28;20046;-69
2023/12/05 02:26:35;;;;;;;50.20;21.85;;;;;;;;;;1046493;28;20044;-69
2023/12/05 02:27:24;;;;;;;55.92;24.13;;;;;;;;;;1044435;28;20511;-69
2023/12/05 02:27:55;;;;;;;51.05;23.00;;;;;;;;;;1050050;28;20048;-69
2023/12/05 02:28:26;;;;;;;52.90;23.88;;;;;;;;;;1048439;28;20499;-69
2023/12/05 02:28:56;;;;;;;50.92;23.52;;;;;;;;;;1050893;28;20056;-69
2023/12/05 02:29:27;;;;;;;48.10;23.42;;;;;;;;;;1050078;28;20695;-69
2023/12/05 02:29:58;;;;;;;53.58;25.38;;;;;;;;;;1051134;28;20097;-69
2023/12/05 02:30:28;;;;;;;54.58;24.85;;;;;;;;;;1047391;28;20777;-69
2023/12/05 02:30:59;;;;;;;66.90;26.25;;;;;;;;;;1051248;28;20662;-69
2023/12/05 02:31:29;;;;;;;54.70;26.75;;;;;;;;;;1048696;28;20048;-69
2023/12/05 02:32:00;;;;;;;53.47;25.23;;;;;;;;;;1050464;28;20077;-69
2023/12/05 02:32:30;;;;;;;62.42;25.75;;;;;;;;;;1049233;28;20158;-69
2023/12/05 02:33:02;;;;;;;55.13;25.20;;;;;;;;;;1052479;28;20047;-69
2023/12/05 02:33:34;;;;;;;56.58;26.88;;;;;;;;;;1047322;28;20115;-69
2023/12/05 02:34:05;;;;;;;64.25;26.23;;;;;;;;;;1050858;28;20048;-68
2023/12/05 02:34:35;;;;;;;58.17;25.70;;;;;;;;;;1049187;28;20854;-69
2023/12/05 02:35:06;;;;;;;62.20;25.73;;;;;;;;;;1051040;28;20393;-69
2023/12/05 02:35:37;;;;;;;58.53;26.10;;;;;;;;;;1045868;28;20072;-69
2023/12/05 02:36:32;;;;;;;50.33;24.73;;;;;;;;;;1046818;28;20040;-69
2023/12/05 02:37:18;;;;;;;51.00;24.10;;;;;;;;;;1043643;28;20113;-69
2023/12/05 02:38:19;;;;;;;50.83;23.30;;;;;;;;;;1046074;28;20053;-69
2023/12/05 02:39:26;;;;;;;52.20;22.85;;;;;;;;;;1048827;28;20056;-69
2023/12/05 02:40:14;;;;;;;50.03;21.92;;;;;;;;;;1045201;28;20052;-69
2023/12/05 02:41:01;;;;;;;52.40;21.10;;;;;;;;;;1048703;28;20106;-69
2023/12/05 02:41:36;;;;;;;50.70;22.60;;;;;;;;;;1048897;28;20093;-69
2023/12/05 02:42:10;;;;;;;50.85;22.95;;;;;;;;;;1046729;28;20036;-69
2023/12/05 02:42:43;;;;;;;53.25;24.52;;;;;;;;;;1048378;28;20403;-69
2023/12/05 02:43:19;;;;;;;47.35;23.23;;;;;;;;;;1049678;28;20391;-70
2023/12/05 02:43:57;;;;;;;57.08;24.45;;;;;;;;;;1046785;28;20101;-70
2023/12/05 02:44:38;;;;;;;52.67;24.98;;;;;;;;;;1046587;28;20078;-68
2023/12/05 02:45:16;;;;;;;56.70;25.08;;;;;;;;;;1048807;28;20122;-69
2023/12/05 02:45:50;;;;;;;53.28;23.58;;;;;;;;;;1046319;28;20620;-69
2023/12/05 02:46:21;;;;;;;55.20;23.88;;;;;;;;;;1046771;28;20049;-69
2023/12/05 02:46:52;;;;;;;48.28;24.45;;;;;;;;;;1044681;28;20040;-69
2023/12/05 02:47:26;;;;;;;54.75;24.52;;;;;;;;;;1045004;28;20059;-69
2023/12/05 02:48:00;;;;;;;51.05;22.70;;;;;;;;;;1044030;28;20456;-69
2023/12/05 02:48:31;;;;;;;51.08;23.30;;;;;;;;;;1043465;28;20056;-69
2023/12/05 02:49:03;;;;;;;55.83;23.98;;;;;;;;;;1045300;28;20066;-69
2023/12/05 02:49:34;;;;;;;57.10;25.75;;;;;;;;;;1049400;28;20048;-69
2023/12/05 02:50:05;;;;;;;54.10;25.17;;;;;;;;;;1047250;28;20127;-69
2023/12/05 02:50:35;;;;;;;56.90;24.30;;;;;;;;;;1049735;28;20491;-69
2023/12/05 02:51:06;;;;;;;52.15;24.95;;;;;;;;;;1050754;28;20598;-69
2023/12/05 02:51:37;;;;;;;53.70;24.52;;;;;;;;;;1048653;28;20044;-69
2023/12/05 02:52:09;;;;;;;53.70;24.65;;;;;;;;;;1050153;28;20115;-69
2023/12/05 02:52:40;;;;;;;54.47;24.77;;;;;;;;;;1050027;28;20048;-69
2023/12/05 02:53:10;;;;;;;53.72;25.73;;;;;;;;;;1050881;28;20040;-69
2023/12/05 02:53:41;;;;;;;57.72;25.52;;;;;;;;;;1048689;28;20052;-69
2023/12/05 02:54:11;;;;;;;58.28;24.38;;;;;;;;;;1050047;28;20122;-69
2023/12/05 02:54:42;;;;;;;56.78;24.88;;;;;;;;;;1050524;28;20450;-69
2023/12/05 02:55:13;;;;;;;52.63;24.95;;;;;;;;;;1049873;28;20077;-69
2023/12/05 02:55:43;;;;;;;54.80;24.73;;;;;;;;;;1047898;28;20052;-69
2023/12/05 02:56:14;;;;;;;51.70;23.65;;;;;;;;;;1050431;28;20468;-69
2023/12/05 02:56:45;;;;;;;51.65;24.88;;;;;;;;;;1044686;28;20674;-69
2023/12/05 02:57:15;;;;;;;57.88;26.70;;;;;;;;;;1042468;28;20385;-69
2023/12/05 02:57:46;;;;;;;59.13;26.27;;;;;;;;;;1041989;28;20086;-69
2023/12/05 02:58:16;;;;;;;48.70;23.77;;;;;;;;;;1046047;28;20476;-69
2023/12/05 02:58:47;;;;;;;55.67;26.15;;;;;;;;;;1041660;28;20044;-69
2023/12/05 02:59:18;;;;;;;52.45;26.00;;;;;;;;;;1038546;28;20042;-69
2023/12/05 02:59:48;;;;;;;50.60;24.35;;;;;;;;;;1044296;28;20051;-69
2023/12/05 03:00:19;;;;;;;49.75;23.65;;;;;;;;;;1043482;28;20040;-69
2023/12/05 03:00:50;;;;;;;54.22;24.23;;;;;;;;;;1044517;28;20095;-69
2023/12/05 03:01:20;;;;;;;49.65;24.25;;;;;;;;;;1044588;28;20033;-69
2023/12/05 03:01:51;;;;;;;53.15;24.77;;;;;;;;;;1043893;28;20063;-69
2023/12/05 03:02:22;;;;;;;45.60;22.83;;;;;;;;;;1042638;28;20661;-69
2023/12/05 03:02:52;;;;;;;46.55;22.63;;;;;;;;;;1044476;28;20405;-70
2023/12/05 03:03:23;;;;;;;48.22;24.70;;;;;;;;;;1042497;28;20115;-68
2023/12/05 03:03:53;;;;;;;54.55;23.98;;;;;;;;;;1043631;28;20566;-69
2023/12/05 03:04:24;;;;;;;52.72;25.42;;;;;;;;;;1044583;28;20048;-69
2023/12/05 03:04:54;;;;;;;50.58;24.80;;;;;;;;;;1047470;28;20119;-69
2023/12/05 03:05:25;;;;;;;52.22;23.58;;;;;;;;;;1044341;28;20513;-69
2023/12/05 03:05:56;;;;;;;49.58;24.15;;;;;;;;;;1047334;28;20564;-69
2023/12/05 03:06:28;;;;;;;56.00;24.15;;;;;;;;;;1043042;28;20519;-69
2023/12/05 03:06:58;;;;;;;52.20;24.02;;;;;;;;;;1043837;28;20493;-69
2023/12/05 03:07:29;;;;;;;54.45;23.70;;;;;;;;;;1042809;28;20533;-69
2023/12/05 03:08:00;;;;;;;55.38;24.25;;;;;;;;;;1043734;28;20083;-68